sensor_id;sensor_type;location;lat;lon;timestamp;pressure;altitude;pressure_sealevel;temperature;humidity
59272;BME280;45043;51.068;7.026;2023-04-02T00:08:28;99553.56;;;6.85;72.08
59272;BME280;45043;51.068;7.026;2023-04-02T00:11:43;99555.97;;;6.80;71.49
59272;BME280;45043;51.068;7.026;2023-04-02T00:14:47;99559.22;;;6.82;71.23
59272;BME280;45043;51.068;7.026;2023-04-02T00:17:48;99564.91;;;6.79;70.60
59272;BME280;45043;51.068;7.026;2023-04-02T00:21:38;99566.91;;;6.77;70.50
59272;BME280;45043;51.068;7.026;2023-04-02T00:24:16;99581.50;;;6.73;70.10
59272;BME280;45043;51.068;7.026;2023-04-02T00:27:18;99590.81;;;6.69;70.07
59272;BME280;45043;51.068;7.026;2023-04-02T00:30:20;99596.84;;;6.63;69.79
59272;BME280;45043;51.068;7.026;2023-04-02T00:33:22;99601.31;;;6.62;69.55
59272;BME280;45043;51.068;7.026;2023-04-02T00:36:24;99598.69;;;6.62;69.06
59272;BME280;45043;51.068;7.026;2023-04-02T00:39:28;99609.66;;;6.66;68.92
59272;BME280;45043;51.068;7.026;2023-04-02T00:42:30;99620.97;;;6.60;68.72
59272;BME280;45043;51.068;7.026;2023-04-02T00:45:34;99622.81;;;6.59;67.94
59272;BME280;45043;51.068;7.026;2023-04-02T00:51:48;99630.56;;;6.39;68.06
59272;BME280;45043;51.068;7.026;2023-04-02T00:55:05;99634.97;;;6.32;68.11
59272;BME280;45043;51.068;7.026;2023-04-02T00:58:24;99639.59;;;6.30;67.98
59272;BME280;45043;51.068;7.026;2023-04-02T01:01:33;99642.50;;;6.35;67.84
59272;BME280;45043;51.068;7.026;2023-04-02T01:04:35;99648.16;;;6.32;67.52
59272;BME280;45043;51.068;7.026;2023-04-02T01:11:02;99641.00;;;6.26;67.23
59272;BME280;45043;51.068;7.026;2023-04-02T01:14:18;99659.59;;;6.18;67.22
59272;BME280;45043;51.068;7.026;2023-04-02T01:17:29;99663.84;;;6.19;66.60
59272;BME280;45043;51.068;7.026;2023-04-02T01:24:11;99678.34;;;6.08;66.61
59272;BME280;45043;51.068;7.026;2023-04-02T01:27:17;99677.06;;;6.04;66.24
59272;BME280;45043;51.068;7.026;2023-04-02T01:30:20;99687.56;;;5.98;66.67
59272;BME280;45043;51.068;7.026;2023-04-02T01:33:23;99697.72;;;6.01;66.48
59272;BME280;45043;51.068;7.026;2023-04-02T01:46:35;99721.75;;;5.91;66.08
59272;BME280;45043;51.068;7.026;2023-04-02T01:49:38;99719.13;;;5.91;65.65
59272;BME280;45043;51.068;7.026;2023-04-02T01:52:41;99716.66;;;5.89;65.54
59272;BME280;45043;51.068;7.026;2023-04-02T01:55:52;99736.84;;;5.82;65.53
59272;BME280;45043;51.068;7.026;2023-04-02T01:58:56;99740.13;;;5.84;65.40
59272;BME280;45043;51.068;7.026;2023-04-02T02:02:02;99743.22;;;5.88;65.44
59272;BME280;45043;51.068;7.026;2023-04-02T02:05:12;99747.03;;;5.85;65.20
59272;BME280;45043;51.068;7.026;2023-04-02T02:08:38;99747.78;;;5.79;65.13
59272;BME280;45043;51.068;7.026;2023-04-02T02:11:42;99761.75;;;5.80;65.35
59272;BME280;45043;51.068;7.026;2023-04-02T02:14:50;99766.38;;;5.78;64.90
59272;BME280;45043;51.068;7.026;2023-04-02T02:18:02;99770.94;;;5.69;65.06
59272;BME280;45043;51.068;7.026;2023-04-02T02:21:05;99767.03;;;5.65;65.22
59272;BME280;45043;51.068;7.026;2023-04-02T02:24:33;99788.63;;;5.60;64.98
59272;BME280;45043;51.068;7.026;2023-04-02T02:27:47;99797.38;;;5.61;64.66
59272;BME280;45043;51.068;7.026;2023-04-02T02:30:59;99801.81;;;5.60;64.78
59272;BME280;45043;51.068;7.026;2023-04-02T02:34:04;99815.19;;;5.59;64.58
59272;BME280;45043;51.068;7.026;2023-04-02T02:37:22;99817.19;;;5.57;64.16
59272;BME280;45043;51.068;7.026;2023-04-02T02:40:33;99822.72;;;5.62;64.08
59272;BME280;45043;51.068;7.026;2023-04-02T02:43:37;99830.44;;;5.63;64.15
59272;BME280;45043;51.068;7.026;2023-04-02T02:46:55;99838.28;;;5.57;63.78
59272;BME280;45043;51.068;7.026;2023-04-02T02:50:22;99836.97;;;5.53;63.80
59272;BME280;45043;51.068;7.026;2023-04-02T02:53:24;99853.44;;;5.55;63.83
59272;BME280;45043;51.068;7.026;2023-04-02T02:56:29;99853.78;;;5.52;63.53
59272;BME280;45043;51.068;7.026;2023-04-02T02:59:32;99862.84;;;5.49;63.53
59272;BME280;45043;51.068;7.026;2023-04-02T03:02:36;99871.19;;;5.38;63.66
59272;BME280;45043;51.068;7.026;2023-04-02T03:05:40;99870.94;;;5.25;63.96
59272;BME280;45043;51.068;7.026;2023-04-02T03:15:33;99878.34;;;5.29;63.58
59272;BME280;45043;51.068;7.026;2023-04-02T03:18:46;99884.59;;;5.28;63.65
59272;BME280;45043;51.068;7.026;2023-04-02T03:21:59;99887.16;;;5.36;63.18
59272;BME280;45043;51.068;7.026;2023-04-02T03:25:34;99907.59;;;5.34;63.46
59272;BME280;45043;51.068;7.026;2023-04-02T03:28:41;99904.31;;;5.32;63.27
59272;BME280;45043;51.068;7.026;2023-04-02T03:31:53;99926.09;;;5.26;63.02
59272;BME280;45043;51.068;7.026;2023-04-02T03:34:58;99928.13;;;5.16;63.40
59272;BME280;45043;51.068;7.026;2023-04-02T03:38:22;99939.38;;;5.02;63.30
59272;BME280;45043;51.068;7.026;2023-04-02T03:42:01;99941.03;;;5.03;63.51
59272;BME280;45043;51.068;7.026;2023-04-02T03:44:59;99956.63;;;5.04;63.85
59272;BME280;45043;51.068;7.026;2023-04-02T03:48:07;99959.16;;;4.98;63.66
59272;BME280;45043;51.068;7.026;2023-04-02T03:51:17;99954.56;;;4.91;63.63
59272;BME280;45043;51.068;7.026;2023-04-02T03:54:19;99955.88;;;4.96;63.54
59272;BME280;45043;51.068;7.026;2023-04-02T03:57:42;99975.63;;;4.91;63.70
59272;BME280;45043;51.068;7.026;2023-04-02T04:04:15;99989.13;;;4.88;63.33
59272;BME280;45043;51.068;7.026;2023-04-02T04:07:28;100002.94;;;4.82;63.18
59272;BME280;45043;51.068;7.026;2023-04-02T04:10:30;100011.84;;;4.81;63.23
59272;BME280;45043;51.068;7.026;2023-04-02T04:13:42;100007.84;;;4.93;62.98
59272;BME280;45043;51.068;7.026;2023-04-02T04:16:49;100002.94;;;4.82;63.01
59272;BME280;45043;51.068;7.026;2023-04-02T04:20:23;100027.00;;;4.79;62.85
59272;BME280;45043;51.068;7.026;2023-04-02T04:23:35;100038.16;;;4.81;63.01
59272;BME280;45043;51.068;7.026;2023-04-02T04:26:53;100038.50;;;4.78;63.06
59272;BME280;45043;51.068;7.026;2023-04-02T04:30:06;100036.19;;;4.75;62.80
59272;BME280;45043;51.068;7.026;2023-04-02T04:33:18;100052.47;;;4.79;63.04
59272;BME280;45043;51.068;7.026;2023-04-02T04:36:28;100054.94;;;4.80;62.48
59272;BME280;45043;51.068;7.026;2023-04-02T04:39:43;100058.41;;;4.81;62.64
59272;BME280;45043;51.068;7.026;2023-04-02T04:42:47;100058.88;;;4.84;62.81
59272;BME280;45043;51.068;7.026;2023-04-02T04:45:54;100082.56;;;4.84;62.21
59272;BME280;45043;51.068;7.026;2023-04-02T04:52:45;100093.78;;;4.70;62.26
59272;BME280;45043;51.068;7.026;2023-04-02T04:55:50;100098.25;;;4.61;62.80
59272;BME280;45043;51.068;7.026;2023-04-02T05:02:07;100112.53;;;4.59;62.61
59272;BME280;45043;51.068;7.026;2023-04-02T05:05:20;100136.91;;;4.61;62.45
59272;BME280;45043;51.068;7.026;2023-04-02T05:08:28;100140.16;;;4.63;62.33
59272;BME280;45043;51.068;7.026;2023-04-02T05:11:42;100146.41;;;4.62;62.25
59272;BME280;45043;51.068;7.026;2023-04-02T05:14:52;100148.06;;;4.55;62.25
59272;BME280;45043;51.068;7.026;2023-04-02T05:18:25;100155.97;;;4.47;62.07
59272;BME280;45043;51.068;7.026;2023-04-02T05:25:12;100181.28;;;4.56;63.43
59272;BME280;45043;51.068;7.026;2023-04-02T05:28:26;100187.84;;;4.84;65.28
59272;BME280;45043;51.068;7.026;2023-04-02T05:31:36;100184.19;;;5.26;66.34
59272;BME280;45043;51.068;7.026;2023-04-02T05:34:41;100183.44;;;5.57;65.97
59272;BME280;45043;51.068;7.026;2023-04-02T05:37:46;100190.88;;;5.84;65.44
59272;BME280;45043;51.068;7.026;2023-04-02T05:44:28;100207.38;;;6.41;63.00
59272;BME280;45043;51.068;7.026;2023-04-02T05:47:31;100217.38;;;6.45;62.77
59272;BME280;45043;51.068;7.026;2023-04-02T05:50:35;100215.19;;;6.57;61.67
59272;BME280;45043;51.068;7.026;2023-04-02T05:53:50;100227.50;;;6.65;61.19
59272;BME280;45043;51.068;7.026;2023-04-02T05:56:56;100236.50;;;6.70;60.44
59272;BME280;45043;51.068;7.026;2023-04-02T06:00:04;100244.72;;;6.75;60.35
59272;BME280;45043;51.068;7.026;2023-04-02T06:09:41;100277.38;;;6.51;59.94
59272;BME280;45043;51.068;7.026;2023-04-02T06:12:47;100289.66;;;6.67;59.00
59272;BME280;45043;51.068;7.026;2023-04-02T06:15:53;100300.22;;;6.67;58.57
59272;BME280;45043;51.068;7.026;2023-04-02T06:18:58;100304.44;;;6.76;58.43
59272;BME280;45043;51.068;7.026;2023-04-02T06:22:07;100311.03;;;6.80;57.61
59272;BME280;45043;51.068;7.026;2023-04-02T06:25:34;100313.34;;;6.83;58.09
59272;BME280;45043;51.068;7.026;2023-04-02T06:28:43;100327.03;;;6.87;57.32
59272;BME280;45043;51.068;7.026;2023-04-02T06:31:51;100328.50;;;6.81;56.80
59272;BME280;45043;51.068;7.026;2023-04-02T06:34:54;100341.41;;;6.76;56.84
59272;BME280;45043;51.068;7.026;2023-04-02T06:37:58;100343.50;;;6.89;56.63
59272;BME280;45043;51.068;7.026;2023-04-02T06:41:13;100352.50;;;7.03;55.81
59272;BME280;45043;51.068;7.026;2023-04-02T06:44:48;100354.13;;;7.04;55.77
59272;BME280;45043;51.068;7.026;2023-04-02T06:48:15;100360.34;;;7.11;54.96
59272;BME280;45043;51.068;7.026;2023-04-02T06:51:19;100368.50;;;7.01;54.25
59272;BME280;45043;51.068;7.026;2023-04-02T06:54:21;100371.97;;;7.02;54.82
59272;BME280;45043;51.068;7.026;2023-04-02T06:57:27;100370.22;;;6.94;54.27
59272;BME280;45043;51.068;7.026;2023-04-02T07:00:37;100378.81;;;6.57;54.28
59272;BME280;45043;51.068;7.026;2023-04-02T07:03:40;100382.72;;;6.30;55.08
59272;BME280;45043;51.068;7.026;2023-04-02T07:07:02;100396.78;;;6.14;55.25
59272;BME280;45043;51.068;7.026;2023-04-02T07:10:07;100402.09;;;6.06;55.27
59272;BME280;45043;51.068;7.026;2023-04-02T07:13:13;100411.66;;;5.99;55.65
59272;BME280;45043;51.068;7.026;2023-04-02T07:16:25;100424.38;;;5.87;55.79
59272;BME280;45043;51.068;7.026;2023-04-02T07:19:26;100439.00;;;5.89;56.32
59272;BME280;45043;51.068;7.026;2023-04-02T07:22:30;100444.28;;;5.89;55.85
59272;BME280;45043;51.068;7.026;2023-04-02T07:25:33;100459.59;;;5.86;55.90
59272;BME280;45043;51.068;7.026;2023-04-02T07:28:34;100463.72;;;5.88;56.07
59272;BME280;45043;51.068;7.026;2023-04-02T07:31:37;100464.56;;;5.89;56.13
59272;BME280;45043;51.068;7.026;2023-04-02T07:34:39;100468.38;;;5.86;56.30
59272;BME280;45043;51.068;7.026;2023-04-02T07:37:40;100470.84;;;5.80;55.67
59272;BME280;45043;51.068;7.026;2023-04-02T07:40:40;100489.75;;;5.75;55.72
59272;BME280;45043;51.068;7.026;2023-04-02T07:43:41;100488.78;;;5.68;55.85
59272;BME280;45043;51.068;7.026;2023-04-02T07:46:42;100491.44;;;5.68;56.02
59272;BME280;45043;51.068;7.026;2023-04-02T07:49:42;100507.38;;;5.50;55.17
59272;BME280;45043;51.068;7.026;2023-04-02T07:52:43;100518.00;;;5.24;55.67
59272;BME280;45043;51.068;7.026;2023-04-02T07:55:43;100513.19;;;5.19;55.50
59272;BME280;45043;51.068;7.026;2023-04-02T07:58:44;100525.50;;;5.03;55.80
59272;BME280;45043;51.068;7.026;2023-04-02T08:01:45;100531.38;;;4.97;55.90
59272;BME280;45043;51.068;7.026;2023-04-02T08:04:47;100531.97;;;4.82;56.06
59272;BME280;45043;51.068;7.026;2023-04-02T08:07:52;100538.69;;;4.77;56.48
59272;BME280;45043;51.068;7.026;2023-04-02T08:10:54;100543.47;;;4.81;56.30
59272;BME280;45043;51.068;7.026;2023-04-02T08:13:54;100554.63;;;4.75;56.49
59272;BME280;45043;51.068;7.026;2023-04-02T08:16:55;100561.16;;;4.63;56.51
59272;BME280;45043;51.068;7.026;2023-04-02T08:19:57;100570.94;;;4.53;56.96
59272;BME280;45043;51.068;7.026;2023-04-02T08:23:00;100577.34;;;4.50;56.14
59272;BME280;45043;51.068;7.026;2023-04-02T08:26:00;100589.00;;;4.48;56.33
59272;BME280;45043;51.068;7.026;2023-04-02T08:29:01;100589.59;;;4.41;56.93
59272;BME280;45043;51.068;7.026;2023-04-02T08:32:02;100601.03;;;4.50;56.81
59272;BME280;45043;51.068;7.026;2023-04-02T08:35:03;100611.44;;;4.60;56.87
59272;BME280;45043;51.068;7.026;2023-04-02T08:38:03;100616.91;;;4.66;56.81
59272;BME280;45043;51.068;7.026;2023-04-02T08:41:04;100627.75;;;4.63;56.26
59272;BME280;45043;51.068;7.026;2023-04-02T08:47:13;100631.44;;;4.53;56.57
59272;BME280;45043;51.068;7.026;2023-04-02T08:53:30;100656.34;;;4.58;56.15
59272;BME280;45043;51.068;7.026;2023-04-02T08:57:37;100659.50;;;4.62;55.96
59272;BME280;45043;51.068;7.026;2023-04-02T09:03:38;100678.28;;;4.67;55.49
59272;BME280;45043;51.068;7.026;2023-04-02T09:06:41;100685.25;;;4.76;55.77
59272;BME280;45043;51.068;7.026;2023-04-02T09:09:46;100684.63;;;4.82;55.44
59272;BME280;45043;51.068;7.026;2023-04-02T09:12:51;100680.66;;;4.78;55.25
59272;BME280;45043;51.068;7.026;2023-04-02T09:15:57;100692.94;;;4.69;55.30
59272;BME280;45043;51.068;7.026;2023-04-02T09:19:00;100693.47;;;4.73;55.16
59272;BME280;45043;51.068;7.026;2023-04-02T09:22:05;100694.81;;;4.77;55.18
59272;BME280;45043;51.068;7.026;2023-04-02T09:25:13;100702.75;;;4.85;55.31
59272;BME280;45043;51.068;7.026;2023-04-02T09:28:15;100709.88;;;4.93;55.39
59272;BME280;45043;51.068;7.026;2023-04-02T09:31:22;100711.41;;;4.96;54.49
59272;BME280;45043;51.068;7.026;2023-04-02T09:34:34;100718.94;;;4.90;54.85
59272;BME280;45043;51.068;7.026;2023-04-02T09:37:35;100719.88;;;4.89;54.77
59272;BME280;45043;51.068;7.026;2023-04-02T09:40:46;100742.28;;;4.93;54.75
59272;BME280;45043;51.068;7.026;2023-04-02T09:43:47;100749.25;;;4.94;54.77
59272;BME280;45043;51.068;7.026;2023-04-02T09:46:49;100751.94;;;5.03;54.34
59272;BME280;45043;51.068;7.026;2023-04-02T09:49:50;100749.00;;;5.06;54.85
59272;BME280;45043;51.068;7.026;2023-04-02T09:52:51;100756.19;;;5.04;54.42
59272;BME280;45043;51.068;7.026;2023-04-02T09:56:10;100764.09;;;5.04;54.25
59272;BME280;45043;51.068;7.026;2023-04-02T09:59:18;100768.53;;;5.03;54.14
59272;BME280;45043;51.068;7.026;2023-04-02T10:02:27;100789.31;;;5.06;54.12
59272;BME280;45043;51.068;7.026;2023-04-02T10:05:29;100797.03;;;5.08;54.23
59272;BME280;45043;51.068;7.026;2023-04-02T10:08:32;100807.75;;;5.06;54.30
59272;BME280;45043;51.068;7.026;2023-04-02T10:11:33;100808.94;;;5.12;54.55
59272;BME280;45043;51.068;7.026;2023-04-02T10:14:40;100817.22;;;5.17;54.08
59272;BME280;45043;51.068;7.026;2023-04-02T10:17:42;100826.47;;;5.21;53.69
59272;BME280;45043;51.068;7.026;2023-04-02T10:20:44;100826.31;;;5.23;53.67
59272;BME280;45043;51.068;7.026;2023-04-02T10:23:46;100832.00;;;5.28;53.49
59272;BME280;45043;51.068;7.026;2023-04-02T10:27:44;100832.19;;;5.34;53.70
59272;BME280;45043;51.068;7.026;2023-04-02T10:30:51;100836.84;;;5.40;53.08
59272;BME280;45043;51.068;7.026;2023-04-02T10:34:00;100843.09;;;5.39;53.10
59272;BME280;45043;51.068;7.026;2023-04-02T10:40:59;100859.22;;;5.36;53.07
59272;BME280;45043;51.068;7.026;2023-04-02T10:44:31;100867.47;;;5.41;53.26
59272;BME280;45043;51.068;7.026;2023-04-02T10:47:52;100862.88;;;5.44;53.07
59272;BME280;45043;51.068;7.026;2023-04-02T10:57:35;100871.63;;;5.44;52.80
59272;BME280;45043;51.068;7.026;2023-04-02T11:00:40;100878.41;;;5.47;53.17
59272;BME280;45043;51.068;7.026;2023-04-02T11:03:54;100887.66;;;5.51;52.65
59272;BME280;45043;51.068;7.026;2023-04-02T11:07:00;100896.31;;;5.61;52.58
59272;BME280;45043;51.068;7.026;2023-04-02T11:10:02;100904.50;;;5.58;52.37
59272;BME280;45043;51.068;7.026;2023-04-02T11:13:12;100913.47;;;5.65;52.17
59272;BME280;45043;51.068;7.026;2023-04-02T11:16:14;100928.81;;;5.70;51.88
59272;BME280;45043;51.068;7.026;2023-04-02T11:22:24;100921.25;;;5.75;51.84
59272;BME280;45043;51.068;7.026;2023-04-02T11:25:25;100943.03;;;5.77;51.79
59272;BME280;45043;51.068;7.026;2023-04-02T11:28:26;100925.75;;;5.82;51.40
59272;BME280;45043;51.068;7.026;2023-04-02T11:31:27;100937.44;;;5.98;51.11
59272;BME280;45043;51.068;7.026;2023-04-02T11:37:42;100940.09;;;6.06;51.22
59272;BME280;45043;51.068;7.026;2023-04-02T11:40:54;100947.25;;;6.13;51.08
59272;BME280;45043;51.068;7.026;2023-04-02T11:43:59;100955.63;;;6.09;50.78
59272;BME280;45043;51.068;7.026;2023-04-02T11:47:17;100956.75;;;6.06;51.33
59272;BME280;45043;51.068;7.026;2023-04-02T11:50:31;100964.19;;;6.11;50.72
59272;BME280;45043;51.068;7.026;2023-04-02T11:53:33;100961.50;;;6.03;50.73
59272;BME280;45043;51.068;7.026;2023-04-02T11:56:36;100972.97;;;5.94;51.13
59272;BME280;45043;51.068;7.026;2023-04-02T11:59:55;100972.38;;;6.00;50.72
59272;BME280;45043;51.068;7.026;2023-04-02T12:09:56;100966.97;;;6.01;50.43
59272;BME280;45043;51.068;7.026;2023-04-02T12:12:58;100971.44;;;6.09;50.57
59272;BME280;45043;51.068;7.026;2023-04-02T12:15:58;100982.41;;;6.22;50.19
59272;BME280;45043;51.068;7.026;2023-04-02T12:18:59;100988.41;;;6.32;49.99
59272;BME280;45043;51.068;7.026;2023-04-02T12:22:00;100995.34;;;6.33;50.08
59272;BME280;45043;51.068;7.026;2023-04-02T12:25:51;101002.78;;;6.38;49.58
59272;BME280;45043;51.068;7.026;2023-04-02T12:28:32;101004.59;;;6.37;49.86
59272;BME280;45043;51.068;7.026;2023-04-02T12:31:33;101005.53;;;6.28;49.86
59272;BME280;45043;51.068;7.026;2023-04-02T12:34:34;101013.16;;;6.31;49.46
59272;BME280;45043;51.068;7.026;2023-04-02T12:37:34;101006.53;;;6.27;49.82
59272;BME280;45043;51.068;7.026;2023-04-02T12:40:34;101007.53;;;6.34;49.50
59272;BME280;45043;51.068;7.026;2023-04-02T12:43:35;101022.44;;;6.44;49.18
59272;BME280;45043;51.068;7.026;2023-04-02T12:46:37;101024.09;;;6.45;48.97
59272;BME280;45043;51.068;7.026;2023-04-02T12:49:40;101035.34;;;6.47;48.96
59272;BME280;45043;51.068;7.026;2023-04-02T12:52:47;101028.81;;;6.59;48.81
59272;BME280;45043;51.068;7.026;2023-04-02T12:55:50;101032.47;;;6.66;48.19
59272;BME280;45043;51.068;7.026;2023-04-02T12:58:54;101033.81;;;6.70;48.35
59272;BME280;45043;51.068;7.026;2023-04-02T13:01:57;101040.81;;;6.79;48.05
59272;BME280;45043;51.068;7.026;2023-04-02T13:05:00;101037.56;;;6.85;47.89
59272;BME280;45043;51.068;7.026;2023-04-02T13:08:01;101046.50;;;6.93;47.51
59272;BME280;45043;51.068;7.026;2023-04-02T13:11:03;101031.50;;;7.01;47.23
59272;BME280;45043;51.068;7.026;2023-04-02T13:14:07;101036.63;;;6.95;47.78
59272;BME280;45043;51.068;7.026;2023-04-02T13:17:44;101043.03;;;6.92;47.25
59272;BME280;45043;51.068;7.026;2023-04-02T13:20:54;101049.16;;;7.01;47.20
59272;BME280;45043;51.068;7.026;2023-04-02T13:23:56;101055.03;;;7.13;46.87
59272;BME280;45043;51.068;7.026;2023-04-02T13:26:58;101060.16;;;7.22;46.75
59272;BME280;45043;51.068;7.026;2023-04-02T13:30:07;101051.75;;;7.27;46.66
59272;BME280;45043;51.068;7.026;2023-04-02T13:33:08;101056.88;;;7.20;46.61
59272;BME280;45043;51.068;7.026;2023-04-02T13:36:12;101059.66;;;7.19;46.83
59272;BME280;45043;51.068;7.026;2023-04-02T13:39:14;101057.47;;;7.06;46.84
59272;BME280;45043;51.068;7.026;2023-04-02T13:42:15;101060.63;;;7.09;46.92
59272;BME280;45043;51.068;7.026;2023-04-02T13:45:22;101080.59;;;7.12;46.70
59272;BME280;45043;51.068;7.026;2023-04-02T13:48:23;101080.94;;;7.09;46.59
59272;BME280;45043;51.068;7.026;2023-04-02T13:51:36;101083.63;;;7.25;46.17
59272;BME280;45043;51.068;7.026;2023-04-02T13:54:46;101091.75;;;7.32;45.48
59272;BME280;45043;51.068;7.026;2023-04-02T13:57:48;101092.09;;;7.45;45.30
59272;BME280;45043;51.068;7.026;2023-04-02T14:00:50;101091.47;;;7.43;45.38
59272;BME280;45043;51.068;7.026;2023-04-02T14:03:52;101085.19;;;7.52;45.72
59272;BME280;45043;51.068;7.026;2023-04-02T14:10:29;101092.25;;;7.35;45.11
59272;BME280;45043;51.068;7.026;2023-04-02T14:16:58;101104.97;;;7.32;44.99
59272;BME280;45043;51.068;7.026;2023-04-02T14:34:39;101154.25;;;7.15;44.27
59272;BME280;45043;51.068;7.026;2023-04-02T14:41:23;101167.06;;;7.28;44.00
59272;BME280;45043;51.068;7.026;2023-04-02T14:44:27;101178.16;;;7.31;44.65
59272;BME280;45043;51.068;7.026;2023-04-02T14:50:39;101183.59;;;7.38;43.64
59272;BME280;45043;51.068;7.026;2023-04-02T14:57:21;101196.66;;;7.31;43.97
59272;BME280;45043;51.068;7.026;2023-04-02T15:03:47;101210.47;;;6.99;43.67
59272;BME280;45043;51.068;7.026;2023-04-02T15:06:52;101209.09;;;6.87;44.07
59272;BME280;45043;51.068;7.026;2023-04-02T15:13:11;101210.06;;;6.68;43.79
59272;BME280;45043;51.068;7.026;2023-04-02T15:16:18;101210.44;;;6.55;43.81
59272;BME280;45043;51.068;7.026;2023-04-02T15:19:19;101224.56;;;6.46;43.88
59272;BME280;45043;51.068;7.026;2023-04-02T15:25:44;101225.66;;;6.26;43.17
59272;BME280;45043;51.068;7.026;2023-04-02T15:29:02;101226.91;;;6.04;43.44
59272;BME280;45043;51.068;7.026;2023-04-02T15:35:46;101232.59;;;5.81;43.45
59272;BME280;45043;51.068;7.026;2023-04-02T15:38:55;101228.69;;;5.85;43.85
59272;BME280;45043;51.068;7.026;2023-04-02T15:42:03;101234.03;;;5.94;43.67
59272;BME280;45043;51.068;7.026;2023-04-02T15:48:21;101226.50;;;6.26;42.94
59272;BME280;45043;51.068;7.026;2023-04-02T15:55:06;101259.81;;;6.45;42.45
59272;BME280;45043;51.068;7.026;2023-04-02T16:11:11;101269.41;;;6.64;41.02
59272;BME280;45043;51.068;7.026;2023-04-02T16:17:23;101277.50;;;6.62;40.72
59272;BME280;45043;51.068;7.026;2023-04-02T16:20:39;101273.88;;;6.63;41.03
59272;BME280;45043;51.068;7.026;2023-04-02T16:23:41;101279.59;;;6.77;41.17
59272;BME280;45043;51.068;7.026;2023-04-02T16:27:43;101280.69;;;7.02;40.88
59272;BME280;45043;51.068;7.026;2023-04-02T16:30:43;101284.19;;;7.28;40.61
59272;BME280;45043;51.068;7.026;2023-04-02T16:40:41;101299.50;;;7.51;40.13
59272;BME280;45043;51.068;7.026;2023-04-02T17:03:33;101319.97;;;7.23;40.71
59272;BME280;45043;51.068;7.026;2023-04-02T17:06:43;101335.09;;;7.13;40.82
59272;BME280;45043;51.068;7.026;2023-04-02T17:09:49;101336.06;;;7.11;40.68
59272;BME280;45043;51.068;7.026;2023-04-02T17:13:07;101340.28;;;7.04;40.60
59272;BME280;45043;51.068;7.026;2023-04-02T17:19:14;101346.50;;;6.95;40.99
59272;BME280;45043;51.068;7.026;2023-04-02T17:22:19;101343.25;;;6.83;40.67
59272;BME280;45043;51.068;7.026;2023-04-02T17:25:25;101349.25;;;6.76;40.56
59272;BME280;45043;51.068;7.026;2023-04-02T17:28:30;101357.22;;;6.66;41.09
59272;BME280;45043;51.068;7.026;2023-04-02T17:31:36;101363.50;;;6.65;41.08
59272;BME280;45043;51.068;7.026;2023-04-02T17:34:37;101371.72;;;6.62;40.84
59272;BME280;45043;51.068;7.026;2023-04-02T17:37:46;101376.63;;;6.57;41.00
59272;BME280;45043;51.068;7.026;2023-04-02T17:41:09;101375.00;;;6.46;41.06
59272;BME280;45043;51.068;7.026;2023-04-02T17:47:56;101390.34;;;6.05;41.45
59272;BME280;45043;51.068;7.026;2023-04-02T17:54:20;101399.13;;;5.86;41.62
59272;BME280;45043;51.068;7.026;2023-04-02T18:10:59;101419.00;;;5.52;42.81
59272;BME280;45043;51.068;7.026;2023-04-02T18:17:48;101433.19;;;5.51;42.95
59272;BME280;45043;51.068;7.026;2023-04-02T18:21:10;101436.50;;;5.43;42.69
59272;BME280;45043;51.068;7.026;2023-04-02T18:27:54;101451.28;;;5.15;42.69
59272;BME280;45043;51.068;7.026;2023-04-02T18:31:17;101462.94;;;5.12;42.56
59272;BME280;45043;51.068;7.026;2023-04-02T18:34:40;101463.22;;;5.09;42.48
59272;BME280;45043;51.068;7.026;2023-04-02T18:41:40;101463.03;;;4.91;42.73
59272;BME280;45043;51.068;7.026;2023-04-02T18:45:01;101468.41;;;4.90;42.91
59272;BME280;45043;51.068;7.026;2023-04-02T18:51:33;101481.69;;;4.69;42.90
59272;BME280;45043;51.068;7.026;2023-04-02T18:55:15;101484.25;;;4.59;43.36
59272;BME280;45043;51.068;7.026;2023-04-02T18:58:12;101492.13;;;4.50;43.17
59272;BME280;45043;51.068;7.026;2023-04-02T19:01:24;101496.69;;;4.48;43.63
59272;BME280;45043;51.068;7.026;2023-04-02T19:04:29;101500.78;;;4.40;43.29
59272;BME280;45043;51.068;7.026;2023-04-02T19:07:34;101498.16;;;4.40;43.70
59272;BME280;45043;51.068;7.026;2023-04-02T19:10:40;101504.25;;;4.41;43.58
59272;BME280;45043;51.068;7.026;2023-04-02T19:13:42;101516.72;;;4.39;44.00
59272;BME280;45043;51.068;7.026;2023-04-02T19:23:27;101530.53;;;4.31;44.13
59272;BME280;45043;51.068;7.026;2023-04-02T19:26:48;101527.69;;;4.23;43.99
59272;BME280;45043;51.068;7.026;2023-04-02T19:30:00;101533.47;;;4.17;43.87
59272;BME280;45043;51.068;7.026;2023-04-02T19:36:35;101551.13;;;4.05;43.85
59272;BME280;45043;51.068;7.026;2023-04-02T19:42:47;101558.78;;;3.97;44.49
59272;BME280;45043;51.068;7.026;2023-04-02T19:45:49;101566.94;;;3.94;44.51
59272;BME280;45043;51.068;7.026;2023-04-02T19:49:15;101569.25;;;3.87;44.44
59272;BME280;45043;51.068;7.026;2023-04-02T19:52:16;101567.59;;;3.86;44.71
59272;BME280;45043;51.068;7.026;2023-04-02T19:55:16;101564.72;;;3.78;44.69
59272;BME280;45043;51.068;7.026;2023-04-02T19:58:31;101571.56;;;3.69;44.38
59272;BME280;45043;51.068;7.026;2023-04-02T20:01:33;101574.69;;;3.63;44.50
59272;BME280;45043;51.068;7.026;2023-04-02T20:04:33;101576.41;;;3.53;44.55
59272;BME280;45043;51.068;7.026;2023-04-02T20:07:34;101571.50;;;3.48;44.73
59272;BME280;45043;51.068;7.026;2023-04-02T20:10:34;101576.06;;;3.46;44.84
59272;BME280;45043;51.068;7.026;2023-04-02T20:13:35;101576.78;;;3.37;44.47
59272;BME280;45043;51.068;7.026;2023-04-02T20:16:35;101565.56;;;3.24;45.04
59272;BME280;45043;51.068;7.026;2023-04-02T20:19:37;101584.63;;;3.26;44.76
59272;BME280;45043;51.068;7.026;2023-04-02T20:22:38;101590.88;;;3.14;45.39
59272;BME280;45043;51.068;7.026;2023-04-02T20:25:46;101584.44;;;3.07;45.06
59272;BME280;45043;51.068;7.026;2023-04-02T20:28:51;101596.34;;;2.99;44.74
59272;BME280;45043;51.068;7.026;2023-04-02T20:31:52;101595.28;;;2.91;45.42
59272;BME280;45043;51.068;7.026;2023-04-02T20:34:53;101600.78;;;2.88;45.70